Time;durP1;ratioP1;P1;durP2;ratioP2;P2;SDS_P1;SDS_P2;PMS_P1;PMS_P2;Temp;Humidity;BMP_temperature;BMP_pressure;BME280_temperature;BME280_humidity;BME280_pressure;Samples;Min_cycle;Max_cycle;Signal;HPM_P1;HPM_P2
2023/11/23 00:00:09;;;;;;;6.50;3.35;;;4.30;99.90;;;;;;6347302;22;20053;-89
2023/11/23 00:02:35;;;;;;;7.35;2.85;;;4.30;99.90;;;;;;6319141;22;20018;-87
2023/11/23 00:05:01;;;;;;;7.82;3.35;;;4.40;99.90;;;;;;6318654;22;20014;-87
2023/11/23 00:07:27;;;;;;;6.05;2.95;;;4.40;99.90;;;;;;6317342;22;20007;-87
2023/11/23 00:09:53;;;;;;;10.32;3.35;;;4.40;99.90;;;;;;6317968;22;20011;-87
2023/11/23 00:12:19;;;;;;;7.70;3.22;;;4.50;99.90;;;;;;6319690;22;20071;-88
2023/11/23 00:14:45;;;;;;;6.10;3.00;;;4.50;99.90;;;;;;6319988;22;20032;-87
2023/11/23 00:17:12;;;;;;;6.53;2.90;;;4.50;99.90;;;;;;6319175;22;20053;-86
2023/11/23 00:19:38;;;;;;;7.80;3.25;;;4.60;99.90;;;;;;6318386;22;20014;-87
2023/11/23 00:22:04;;;;;;;9.20;3.25;;;4.60;99.90;;;;;;6319858;22;20026;-86
2023/11/23 00:24:30;;;;;;;6.45;2.55;;;4.60;99.90;;;;;;6319164;22;19999;-87
2023/11/23 00:26:56;;;;;;;8.43;3.38;;;4.60;99.90;;;;;;6323645;22;20022;-87
2023/11/23 00:29:22;;;;;;;6.32;3.28;;;4.60;99.90;;;;;;6320597;22;20003;-87
2023/11/23 00:31:47;;;;;;;7.53;3.78;;;4.70;99.90;;;;;;6318994;22;20006;-87
2023/11/23 00:34:13;;;;;;;8.25;3.38;;;4.70;99.90;;;;;;6319177;22;20310;-86
2023/11/23 00:36:39;;;;;;;5.53;3.10;;;4.70;99.90;;;;;;6316708;22;20019;-87
2023/11/23 00:39:06;;;;;;;7.55;3.30;;;4.70;99.90;;;;;;6317298;22;20037;-87
2023/11/23 00:41:32;;;;;;;7.78;3.50;;;4.80;99.90;;;;;;6318683;22;20003;-87
2023/11/23 00:44:04;;;;;;;8.57;3.03;;;4.80;99.90;;;;;;6319525;22;20022;-87
2023/11/23 00:46:35;;;;;;;9.18;3.75;;;4.80;99.90;;;;;;6317325;22;20018;-87
2023/11/23 00:49:04;;;;;;;9.02;3.53;;;4.80;99.90;;;;;;6319042;22;19998;-87
2023/11/23 00:51:33;;;;;;;7.30;3.35;;;4.80;99.90;;;;;;6319550;22;19998;-89
2023/11/23 00:54:04;;;;;;;8.02;3.92;;;4.80;99.90;;;;;;6319456;22;20006;-87
2023/11/23 00:56:30;;;;;;;14.05;4.40;;;4.80;99.90;;;;;;6318256;22;20017;-89
2023/11/23 00:58:56;;;;;;;9.85;4.15;;;4.90;99.90;;;;;;6319165;22;20418;-87
2023/11/23 01:01:22;;;;;;;7.20;3.72;;;4.90;99.90;;;;;;6319508;22;20362;-88
2023/11/23 01:03:51;;;;;;;8.50;4.25;;;4.90;99.90;;;;;;6319821;22;20449;-86
2023/11/23 01:06:23;;;;;;;6.18;3.80;;;4.90;99.90;;;;;;6319000;22;20005;-87
2023/11/23 01:08:51;;;;;;;10.80;4.28;;;4.90;99.90;;;;;;6318460;22;20006;-87
2023/11/23 01:11:18;;;;;;;8.40;4.13;;;4.90;99.90;;;;;;6320228;22;19998;-88
2023/11/23 01:13:44;;;;;;;10.82;4.20;;;4.90;99.90;;;;;;6321743;22;19995;-87
2023/11/23 01:16:10;;;;;;;10.38;5.18;;;4.90;99.90;;;;;;6346499;22;20024;-88
2023/11/23 01:18:36;;;;;;;9.75;5.55;;;4.90;99.90;;;;;;6316777;22;20432;-87
2023/11/23 01:21:01;;;;;;;10.23;4.97;;;4.90;99.90;;;;;;6318211;22;20006;-87
2023/11/23 01:23:27;;;;;;;8.00;4.43;;;4.90;99.90;;;;;;6318909;22;20060;-87
2023/11/23 01:25:53;;;;;;;8.98;4.55;;;4.90;99.90;;;;;;6316617;22;19995;-88
2023/11/23 01:28:19;;;;;;;11.32;5.15;;;4.90;99.90;;;;;;6318750;22;20053;-87
2023/11/23 01:30:48;;;;;;;18.02;5.78;;;4.90;99.90;;;;;;6317738;22;20010;-87
2023/11/23 01:33:15;;;;;;;12.13;5.20;;;4.90;99.90;;;;;;6319343;22;20093;-87
2023/11/23 01:35:41;;;;;;;12.90;4.82;;;4.90;99.90;;;;;;6318506;22;20010;-86
2023/11/23 01:38:07;;;;;;;9.30;5.28;;;5.00;99.90;;;;;;6317035;22;20007;-87
2023/11/23 01:40:32;;;;;;;8.63;4.55;;;5.00;99.90;;;;;;6319363;22;20455;-88
2023/11/23 01:43:05;;;;;;;10.98;5.50;;;5.00;99.90;;;;;;6317793;22;20003;-87
2023/11/23 01:45:31;;;;;;;12.37;4.87;;;5.10;99.90;;;;;;6323628;22;20006;-87
2023/11/23 01:47:58;;;;;;;10.90;4.53;;;5.10;99.90;;;;;;6317722;22;20225;-87
2023/11/23 01:50:25;;;;;;;9.15;4.40;;;5.10;99.90;;;;;;6318797;22;20003;-86
2023/11/23 01:52:52;;;;;;;10.63;4.45;;;5.10;99.90;;;;;;6319104;22;20019;-87
2023/11/23 01:55:18;;;;;;;9.57;4.30;;;5.10;99.90;;;;;;6315980;22;20075;-87
2023/11/23 01:57:46;;;;;;;9.77;4.55;;;5.10;99.90;;;;;;6316935;22;20003;-87
2023/11/23 02:00:13;;;;;;;14.05;5.60;;;5.10;99.90;;;;;;6318856;22;20024;-87
2023/11/23 02:02:41;;;;;;;9.32;4.55;;;5.10;99.90;;;;;;6317863;22;20331;-87
2023/11/23 02:05:09;;;;;;;10.75;4.05;;;5.20;99.90;;;;;;6283731;22;20007;-87
2023/11/23 02:07:35;;;;;;;10.55;4.68;;;5.20;99.90;;;;;;6317356;22;20090;-89
2023/11/23 02:10:01;;;;;;;10.68;4.65;;;5.20;99.90;;;;;;6319133;22;20017;-88
2023/11/23 02:12:28;;;;;;;9.32;4.40;;;5.20;99.90;;;;;;6319058;22;20058;-88
2023/11/23 02:14:55;;;;;;;11.15;5.00;;;5.20;99.90;;;;;;6317130;22;20065;-87
2023/11/23 02:17:21;;;;;;;7.93;4.05;;;5.20;99.90;;;;;;6317633;22;20006;-87
2023/11/23 02:19:48;;;;;;;12.60;4.00;;;5.20;99.90;;;;;;6317282;22;20011;-87
2023/11/23 02:22:15;;;;;;;10.50;4.03;;;5.20;99.90;;;;;;6316300;22;19999;-88
2023/11/23 02:24:43;;;;;;;10.52;4.82;;;5.20;99.90;;;;;;6315295;22;20002;-87
2023/11/23 02:27:10;;;;;;;10.57;4.35;;;5.20;99.90;;;;;;6314974;22;20006;-87
2023/11/23 02:29:36;;;;;;;11.23;5.28;;;5.20;99.90;;;;;;6317470;22;20421;-88
2023/11/23 02:32:12;;;;;;;9.02;4.47;;;5.20;99.90;;;;;;6294780;22;20121;-87
2023/11/23 02:34:39;;;;;;;12.52;5.43;;;5.20;99.90;;;;;;6311553;22;20313;-87
2023/11/23 02:37:05;;;;;;;11.05;4.68;;;5.20;99.90;;;;;;6318572;22;20339;-88
2023/11/23 02:39:31;;;;;;;12.15;4.50;;;5.20;99.90;;;;;;6346682;22;20056;-86
2023/11/23 02:41:59;;;;;;;9.48;5.15;;;5.20;99.90;;;;;;6319103;22;19999;-87
2023/11/23 02:44:25;;;;;;;10.32;4.85;;;5.20;99.90;;;;;;6318276;22;20010;-88
2023/11/23 02:46:51;;;;;;;9.98;5.05;;;5.20;99.90;;;;;;6319287;22;20090;-87
2023/11/23 02:49:20;;;;;;;11.05;5.28;;;5.20;99.90;;;;;;6321130;22;20035;-87
2023/11/23 02:51:46;;;;;;;14.60;5.15;;;5.20;99.90;;;;;;6320780;22;20394;-87
2023/11/23 02:54:13;;;;;;;9.57;5.20;;;5.20;99.90;;;;;;6318925;22;20022;-88
2023/11/23 02:56:39;;;;;;;11.73;5.65;;;5.10;99.90;;;;;;6316162;22;20343;-88
2023/11/23 02:59:07;;;;;;;14.07;5.78;;;5.10;99.90;;;;;;6318154;22;20013;-86
2023/11/23 03:01:33;;;;;;;10.00;5.60;;;5.20;99.90;;;;;;6320839;22;20007;-88
2023/11/23 03:03:59;;;;;;;15.13;5.32;;;5.20;99.90;;;;;;6324963;22;20005;-85
2023/11/23 03:06:26;;;;;;;11.07;4.63;;;5.20;99.90;;;;;;6321540;22;19995;-88
2023/11/23 03:08:56;;;;;;;9.93;4.63;;;5.20;99.90;;;;;;6321088;22;19999;-89
2023/11/23 03:11:24;;;;;;;12.18;5.22;;;5.20;99.90;;;;;;6319602;22;20003;-88
2023/11/23 03:13:50;;;;;;;9.73;5.22;;;5.10;99.90;;;;;;6319858;22;20009;-88
2023/11/23 03:16:17;;;;;;;12.25;5.15;;;5.10;99.90;;;;;;6320056;22;20003;-88
2023/11/23 03:18:43;;;;;;;11.13;6.20;;;5.10;99.90;;;;;;6318655;22;20011;-88
2023/11/23 03:21:09;;;;;;;11.90;5.97;;;5.10;99.90;;;;;;6319506;22;20022;-87
2023/11/23 03:23:35;;;;;;;11.15;5.45;;;5.10;99.90;;;;;;6319810;22;20010;-87
2023/11/23 03:26:01;;;;;;;10.20;5.85;;;5.10;99.90;;;;;;6321276;22;20009;-87
2023/11/23 03:28:27;;;;;;;10.48;5.90;;;5.10;99.90;;;;;;6321584;22;20403;-86
2023/11/23 03:30:53;;;;;;;18.33;5.53;;;5.10;99.90;;;;;;6320215;22;20014;-87
2023/11/23 03:33:19;;;;;;;8.85;5.10;;;5.10;99.90;;;;;;6320235;22;20013;-87
2023/11/23 03:35:46;;;;;;;10.68;5.65;;;5.10;99.90;;;;;;6320181;22;20015;-87
2023/11/23 03:38:12;;;;;;;13.77;5.63;;;5.20;99.90;;;;;;6322929;22;20002;-87
2023/11/23 03:40:38;;;;;;;11.10;5.40;;;5.20;99.90;;;;;;6320306;22;20006;-87
2023/11/23 03:43:04;;;;;;;12.30;5.38;;;5.20;99.90;;;;;;6320644;22;20006;-88
2023/11/23 03:45:30;;;;;;;16.77;5.60;;;5.20;99.90;;;;;;6321172;22;20003;-87
2023/11/23 03:47:58;;;;;;;17.45;5.80;;;5.20;99.90;;;;;;6322738;22;20010;-86
2023/11/23 03:50:24;;;;;;;11.40;5.78;;;5.20;99.90;;;;;;6323295;22;20010;-89
2023/11/23 03:52:51;;;;;;;16.35;6.40;;;5.20;99.90;;;;;;6322538;22;20002;-89
2023/11/23 03:55:17;;;;;;;14.40;6.18;;;5.20;99.90;;;;;;6328970;22;20003;-89
2023/11/23 03:57:45;;;;;;;12.75;6.35;;;5.30;99.90;;;;;;6330383;22;20007;-89
2023/11/23 04:00:12;;;;;;;19.13;6.70;;;5.30;99.90;;;;;;6331495;22;19999;-86
2023/11/23 04:02:38;;;;;;;13.73;6.40;;;5.30;99.90;;;;;;6334781;22;20036;-88
2023/11/23 04:05:04;;;;;;;13.10;5.72;;;5.30;99.90;;;;;;6332239;22;19998;-89
2023/11/23 04:07:32;;;;;;;13.80;5.75;;;5.30;99.90;;;;;;6336816;22;19998;-87
2023/11/23 04:09:58;;;;;;;17.17;6.30;;;5.30;99.90;;;;;;6333942;22;20003;-87
2023/11/23 04:12:24;;;;;;;14.20;6.50;;;5.30;99.90;;;;;;6335512;22;20010;-87
2023/11/23 04:14:50;;;;;;;13.23;5.85;;;5.30;99.90;;;;;;6335299;22;19986;-87
2023/11/23 04:17:16;;;;;;;13.30;7.20;;;5.30;99.90;;;;;;6322984;22;20003;-87
2023/11/23 04:19:45;;;;;;;13.77;6.50;;;5.30;99.90;;;;;;6321260;22;20094;-88
2023/11/23 04:22:11;;;;;;;15.98;6.00;;;5.30;99.90;;;;;;6318215;22;19999;-87
2023/11/23 04:24:40;;;;;;;17.00;6.97;;;5.30;99.90;;;;;;6325876;22;20029;-87
2023/11/23 04:27:06;;;;;;;18.13;7.60;;;5.30;99.90;;;;;;6319778;22;20028;-87
2023/11/23 04:29:32;;;;;;;16.63;6.78;;;5.30;99.90;;;;;;6319271;22;20007;-87
2023/11/23 04:31:58;;;;;;;13.50;6.57;;;5.30;99.90;;;;;;6318796;22;20036;-87
2023/11/23 04:34:24;;;;;;;16.17;7.38;;;5.40;99.90;;;;;;6320401;22;20002;-87
2023/11/23 04:36:50;;;;;;;12.70;6.50;;;5.40;99.90;;;;;;6346879;22;19999;-87
2023/11/23 04:39:16;;;;;;;13.32;6.43;;;5.40;99.90;;;;;;6318984;22;20038;-87
2023/11/23 04:41:42;;;;;;;18.00;8.75;;;5.50;99.90;;;;;;6318729;22;19998;-87
2023/11/23 04:44:08;;;;;;;17.13;7.95;;;5.50;99.90;;;;;;6346245;22;20016;-87
2023/11/23 04:46:33;;;;;;;17.90;7.63;;;5.50;99.90;;;;;;6317369;22;20472;-86
2023/11/23 04:49:00;;;;;;;22.58;7.68;;;5.50;99.90;;;;;;6318064;22;20048;-87
2023/11/23 04:51:25;;;;;;;14.52;7.43;;;5.60;99.90;;;;;;6317836;22;20005;-87
2023/11/23 04:53:51;;;;;;;20.35;7.65;;;5.60;99.90;;;;;;6318270;22;19999;-87
2023/11/23 04:56:18;;;;;;;12.13;6.45;;;5.60;99.90;;;;;;6318731;22;20003;-87
2023/11/23 04:58:44;;;;;;;14.55;6.93;;;5.70;99.90;;;;;;6318331;22;20056;-87
2023/11/23 05:01:10;;;;;;;13.75;7.20;;;5.70;99.90;;;;;;6317858;22;20029;-87
2023/11/23 05:03:36;;;;;;;18.55;7.65;;;5.70;99.90;;;;;;6318972;22;20026;-87
2023/11/23 05:06:03;;;;;;;11.50;7.00;;;5.80;99.90;;;;;;6316910;22;20081;-87
2023/11/23 05:08:29;;;;;;;14.65;6.90;;;5.80;99.90;;;;;;6318639;22;20014;-87
2023/11/23 05:10:55;;;;;;;17.13;7.72;;;5.80;99.90;;;;;;6317437;22;20014;-87
2023/11/23 05:13:20;;;;;;;15.25;6.88;;;5.80;99.90;;;;;;6317354;22;20437;-87
2023/11/23 05:15:47;;;;;;;14.82;7.65;;;5.90;99.90;;;;;;6320123;22;20002;-87
2023/11/23 05:18:13;;;;;;;16.40;7.97;;;5.90;99.90;;;;;;6317808;22;20013;-87
2023/11/23 05:20:38;;;;;;;16.63;7.03;;;5.90;99.90;;;;;;6319866;22;19999;-86
2023/11/23 05:23:04;;;;;;;14.20;7.13;;;5.90;99.90;;;;;;6317703;22;20055;-87
2023/11/23 05:25:30;;;;;;;14.07;7.60;;;5.90;99.90;;;;;;6315990;22;20052;-87
2023/11/23 05:27:56;;;;;;;15.95;7.07;;;5.90;99.90;;;;;;6318008;22;20045;-87
2023/11/23 05:30:22;;;;;;;20.85;7.50;;;5.90;99.90;;;;;;6319108;22;20003;-87
2023/11/23 05:32:48;;;;;;;12.93;7.03;;;5.90;99.90;;;;;;6319685;22;20056;-87
2023/11/23 05:35:14;;;;;;;18.40;7.55;;;6.00;99.90;;;;;;6320206;22;20029;-87
2023/11/23 05:37:40;;;;;;;17.00;7.43;;;5.90;99.90;;;;;;6320359;22;20074;-87
2023/11/23 05:40:09;;;;;;;16.58;7.53;;;6.00;99.90;;;;;;6320818;22;20000;-87
2023/11/23 05:42:35;;;;;;;14.73;7.65;;;6.00;99.90;;;;;;6324426;22;20026;-87
2023/11/23 05:45:02;;;;;;;12.35;7.00;;;6.00;99.90;;;;;;6318021;22;20029;-87
2023/11/23 05:47:28;;;;;;;13.85;7.72;;;6.00;99.90;;;;;;6319728;22;20027;-87
2023/11/23 05:49:54;;;;;;;14.68;6.88;;;6.00;99.90;;;;;;6318913;22;20010;-87
2023/11/23 05:52:20;;;;;;;12.70;8.18;;;6.00;99.90;;;;;;6319615;22;20003;-87
2023/11/23 05:54:46;;;;;;;15.48;7.47;;;6.00;99.90;;;;;;6318525;22;20006;-87
2023/11/23 05:57:14;;;;;;;13.98;7.07;;;6.00;99.90;;;;;;6319362;22;19999;-86
2023/11/23 05:59:39;;;;;;;12.25;6.97;;;6.10;99.90;;;;;;6320403;22;19995;-87
2023/11/23 06:02:07;;;;;;;21.55;7.47;;;6.00;99.90;;;;;;6318508;22;20341;-87
2023/11/23 06:04:33;;;;;;;14.05;6.90;;;6.10;99.90;;;;;;6315949;22;20007;-87
2023/11/23 06:06:59;;;;;;;12.38;6.82;;;6.10;99.90;;;;;;6315813;22;20449;-87
2023/11/23 06:09:24;;;;;;;14.48;7.45;;;6.10;99.90;;;;;;6315778;22;20007;-87
2023/11/23 06:11:50;;;;;;;13.55;6.78;;;6.10;99.90;;;;;;6315901;22;20003;-87
2023/11/23 06:14:16;;;;;;;13.82;7.07;;;6.10;99.90;;;;;;6315563;22;20056;-87
2023/11/23 06:16:41;;;;;;;14.30;7.53;;;6.20;99.90;;;;;;6315777;22;20006;-87
2023/11/23 06:19:09;;;;;;;12.52;6.68;;;6.20;99.90;;;;;;6315267;22;20029;-87
2023/11/23 06:21:35;;;;;;;13.10;7.32;;;6.20;99.90;;;;;;6315846;22;20026;-87
2023/11/23 06:24:01;;;;;;;11.90;6.80;;;6.30;99.90;;;;;;6317320;22;20076;-87
2023/11/23 06:26:27;;;;;;;15.20;7.47;;;6.30;99.90;;;;;;6317112;22;20007;-85
2023/11/23 06:28:53;;;;;;;15.95;7.00;;;6.30;99.90;;;;;;6316817;22;20007;-86
2023/11/23 06:31:18;;;;;;;12.45;7.22;;;6.40;99.90;;;;;;6316089;22;20444;-85
2023/11/23 06:33:44;;;;;;;14.07;6.60;;;6.40;99.90;;;;;;6314799;22;20010;-85
2023/11/23 06:36:10;;;;;;;12.70;7.85;;;6.50;99.90;;;;;;6316219;22;20035;-85
2023/11/23 06:38:36;;;;;;;14.60;6.82;;;6.40;99.90;;;;;;6315332;22;20045;-85
2023/11/23 06:41:03;;;;;;;21.33;8.40;;;6.40;99.90;;;;;;6316831;22;20006;-85
2023/11/23 06:45:59;;;;;;;17.23;9.20;;;6.50;99.90;;;;;;6244701;23;20020;-86
2023/11/23 06:48:24;;;;;;;24.70;10.30;;;6.50;99.90;;;;;;6352545;22;20004;-83
2023/11/23 06:50:50;;;;;;;20.67;10.20;;;6.60;99.90;;;;;;6352934;22;20008;-84
2023/11/23 06:53:18;;;;;;;24.50;10.20;;;6.70;99.90;;;;;;6323425;22;20004;-84
2023/11/23 06:55:44;;;;;;;16.10;8.63;;;6.70;99.90;;;;;;6322393;22;20027;-84
2023/11/23 06:58:10;;;;;;;17.00;8.70;;;6.70;99.90;;;;;;6321484;22;20035;-83
2023/11/23 07:00:38;;;;;;;18.15;9.98;;;6.70;99.90;;;;;;6319780;22;20009;-83
2023/11/23 07:03:04;;;;;;;25.02;13.18;;;6.80;99.90;;;;;;6319557;22;20012;-83
2023/11/23 07:05:29;;;;;;;22.17;12.02;;;6.80;99.90;;;;;;6320183;22;20084;-83
2023/11/23 07:07:55;;;;;;;29.50;13.80;;;7.00;99.90;;;;;;6214923;23;20516;-83
2023/11/23 07:10:21;;;;;;;32.60;13.55;;;7.00;99.90;;;;;;6319539;22;20480;-83
2023/11/23 07:12:47;;;;;;;33.17;15.23;;;7.10;99.90;;;;;;6319772;22;20032;-86
2023/11/23 07:15:13;;;;;;;29.48;14.77;;;7.10;99.90;;;;;;6320673;22;20596;-83
2023/11/23 07:17:39;;;;;;;28.52;14.77;;;7.20;99.90;;;;;;6319750;22;20005;-83
2023/11/23 07:20:07;;;;;;;30.50;14.82;;;7.30;99.90;;;;;;6322624;22;20054;-83
2023/11/23 07:22:33;;;;;;;32.05;15.63;;;7.40;99.90;;;;;;6321090;22;20438;-83
2023/11/23 07:25:00;;;;;;;32.20;16.42;;;7.40;99.90;;;;;;6321459;22;20015;-84
2023/11/23 07:27:26;;;;;;;28.42;14.45;;;7.40;99.90;;;;;;6318570;22;20012;-81
2023/11/23 07:29:53;;;;;;;32.55;16.13;;;7.50;99.90;;;;;;6318691;22;20012;-82
2023/11/23 07:32:19;;;;;;;32.30;16.58;;;7.50;99.90;;;;;;6317242;22;20004;-81
2023/11/23 07:34:45;;;;;;;39.60;17.40;;;7.60;99.90;;;;;;6318824;22;20016;-82
2023/11/23 07:37:12;;;;;;;34.30;17.50;;;7.60;99.90;;;;;;6319336;22;20059;-84
2023/11/23 07:39:37;;;;;;;39.30;16.58;;;7.60;99.90;;;;;;6319366;22;20020;-83
2023/11/23 07:42:04;;;;;;;36.78;17.02;;;7.70;99.90;;;;;;6319473;22;20000;-84
2023/11/23 07:44:30;;;;;;;36.83;17.50;;;7.70;99.90;;;;;;6319068;22;20095;-82
2023/11/23 07:46:56;;;;;;;30.88;15.98;;;7.80;99.90;;;;;;6320770;22;20011;-84
2023/11/23 07:49:23;;;;;;;31.60;15.93;;;7.80;99.90;;;;;;6320769;22;20013;-85
2023/11/23 07:51:49;;;;;;;40.30;16.40;;;7.80;99.90;;;;;;6320207;22;20034;-84
2023/11/23 07:54:14;;;;;;;34.28;15.40;;;7.90;99.90;;;;;;6318456;22;20086;-85
2023/11/23 07:56:41;;;;;;;27.55;14.88;;;7.90;99.90;;;;;;6263773;22;20016;-84
2023/11/23 07:59:18;;;;;;;36.75;17.48;;;7.90;99.90;;;;;;6329134;22;20003;-81
2023/11/23 08:01:46;;;;;;;34.40;16.80;;;7.90;99.90;;;;;;6338402;22;20068;-80
2023/11/23 08:04:51;;;;;;;27.40;15.25;;;8.00;99.90;;;;;;6291676;22;20511;-83
2023/11/23 08:07:41;;;;;;;36.22;15.45;;;8.00;99.90;;;;;;6217508;22;19997;-85
2023/11/23 08:10:15;;;;;;;30.92;15.57;;;8.10;99.90;;;;;;6289421;22;20426;-83
2023/11/23 08:12:43;;;;;;;30.50;13.60;;;8.10;99.90;;;;;;6318585;22;20342;-82
2023/11/23 08:15:12;;;;;;;28.55;14.57;;;8.20;99.90;;;;;;6292840;22;20019;-82
2023/11/23 08:17:46;;;;;;;25.95;13.05;;;8.20;99.90;;;;;;6319199;22;20023;-82
2023/11/23 08:20:15;;;;;;;28.35;13.52;;;8.20;99.90;;;;;;6293018;22;20008;-84
2023/11/23 08:22:54;;;;;;;26.25;14.55;;;8.20;99.90;;;;;;6293422;22;20004;-83
2023/11/23 08:25:22;;;;;;;25.10;12.90;;;8.20;99.90;;;;;;6311850;22;20064;-83
2023/11/23 08:27:55;;;;;;;28.13;13.95;;;8.30;99.90;;;;;;6318421;22;20004;-84
2023/11/23 08:30:24;;;;;;;26.75;13.77;;;8.30;99.90;;;;;;6317599;22;20431;-85
2023/11/23 08:33:08;;;;;;;30.45;15.25;;;8.40;99.90;;;;;;6318666;22;20426;-84
2023/11/23 08:35:48;;;;;;;;;;;8.40;99.90;;;;;;6293914;22;20009;-83
2023/11/23 08:38:21;;;;;;;27.08;14.52;;;8.40;99.90;;;;;;6314488;22;19943;-84
2023/11/23 08:40:47;;;;;;;28.97;15.53;;;8.50;99.90;;;;;;6317551;22;20007;-83
2023/11/23 08:43:14;;;;;;;30.27;14.15;;;8.50;99.90;;;;;;6317818;22;20028;-83
2023/11/23 08:45:53;;;;;;;27.45;14.65;;;8.50;99.90;;;;;;6292342;22;20045;-82
2023/11/23 08:48:28;;;;;;;27.10;15.60;;;8.60;99.90;;;;;;6329410;22;20082;-83
2023/11/23 08:50:57;;;;;;;29.48;14.60;;;8.60;99.90;;;;;;6291760;22;20450;-85
2023/11/23 08:53:26;;;;;;;30.40;15.82;;;8.60;99.90;;;;;;6317425;22;20013;-84
2023/11/23 08:55:56;;;;;;;30.40;14.90;;;8.60;99.90;;;;;;6266273;22;20766;-83
2023/11/23 08:58:22;;;;;;;29.40;14.40;;;8.60;99.90;;;;;;6289241;22;20017;-84
2023/11/23 09:00:56;;;;;;;35.83;16.02;;;8.60;99.90;;;;;;6210198;22;20004;-85
2023/11/23 09:03:23;;;;;;;90.68;32.90;;;8.60;99.90;;;;;;6315667;22;20013;-84
2023/11/23 09:05:49;;;;;;;31.52;17.17;;;8.60;99.90;;;;;;6318318;22;20445;-84
2023/11/23 09:08:14;;;;;;;27.55;14.23;;;8.70;99.90;;;;;;6319121;22;20073;-84
2023/11/23 09:10:40;;;;;;;30.27;15.07;;;8.70;99.90;;;;;;6318165;22;20008;-84
2023/11/23 09:13:06;;;;;;;23.67;12.88;;;8.70;99.90;;;;;;6318902;22;20149;-84
2023/11/23 09:15:32;;;;;;;24.27;14.32;;;8.70;99.90;;;;;;6318709;22;20012;-84
2023/11/23 09:17:58;;;;;;;27.67;14.52;;;8.80;99.90;;;;;;6319038;22;20004;-84
2023/11/23 09:20:24;;;;;;;24.35;12.52;;;8.80;99.90;;;;;;6319277;22;20005;-84
2023/11/23 09:22:50;;;;;;;26.00;13.70;;;8.80;99.90;;;;;;6214617;23;20049;-84
2023/11/23 09:25:16;;;;;;;26.58;14.38;;;8.90;99.90;;;;;;6318514;22;20001;-85
2023/11/23 09:27:43;;;;;;;22.52;12.30;;;8.90;99.90;;;;;;6318629;22;20016;-84
2023/11/23 09:30:12;;;;;;;27.38;13.50;;;8.90;99.90;;;;;;6317772;22;20012;-85
2023/11/23 09:32:38;;;;;;;23.92;12.23;;;8.90;99.90;;;;;;6319316;22;20450;-84
2023/11/23 09:35:10;;;;;;;22.20;11.45;;;9.00;99.90;;;;;;6295645;22;20024;-84
2023/11/23 09:37:39;;;;;;;24.70;12.75;;;9.00;99.90;;;;;;6318072;22;20012;-85
2023/11/23 09:40:09;;;;;;;23.30;11.55;;;9.00;99.90;;;;;;6320809;22;20005;-84
2023/11/23 09:42:38;;;;;;;27.65;12.68;;;9.00;99.90;;;;;;6320501;22;20029;-85
2023/11/23 09:45:10;;;;;;;23.20;12.40;;;9.10;99.90;;;;;;6318890;22;20008;-85
2023/11/23 09:47:38;;;;;;;21.30;12.00;;;9.10;99.90;;;;;;6319905;22;20008;-85
2023/11/23 09:50:13;;;;;;;21.30;12.10;;;9.10;99.90;;;;;;6319184;22;20046;-85
2023/11/23 09:52:41;;;;;;;25.17;13.15;;;9.10;99.90;;;;;;6319333;22;20572;-85
2023/11/23 09:55:08;;;;;;;20.88;12.30;;;9.10;99.90;;;;;;6328350;22;20081;-85
2023/11/23 09:57:35;;;;;;;18.17;11.52;;;9.20;99.90;;;;;;6319451;22;20632;-85
2023/11/23 10:00:09;;;;;;;27.05;11.13;;;9.20;99.90;;;;;;6320662;22;20727;-85
2023/11/23 10:02:36;;;;;;;25.58;12.82;;;9.20;99.90;;;;;;6320509;22;20450;-85
2023/11/23 10:05:08;;;;;;;25.00;12.05;;;9.20;99.90;;;;;;6321555;22;20013;-85
2023/11/23 10:07:38;;;;;;;19.98;11.48;;;9.20;99.90;;;;;;6319835;22;20095;-85
2023/11/23 10:10:05;;;;;;;20.20;11.45;;;9.30;99.90;;;;;;6321690;22;20008;-85
2023/11/23 10:12:34;;;;;;;25.85;11.55;;;9.30;99.90;;;;;;6321123;22;20012;-85
2023/11/23 10:14:59;;;;;;;19.67;10.23;;;9.30;99.90;;;;;;6321397;22;20008;-85
2023/11/23 10:17:27;;;;;;;18.67;10.10;;;9.40;99.90;;;;;;6320089;22;20015;-85
2023/11/23 10:20:21;;;;;;;18.73;10.05;;;9.40;99.90;;;;;;6320596;22;20005;-85
2023/11/23 10:22:48;;;;;;;18.33;10.30;;;9.40;99.90;;;;;;6320945;22;19997;-85
2023/11/23 10:25:35;;;;;;;23.13;11.93;;;9.40;99.90;;;;;;6320739;22;20034;-85
2023/11/23 10:28:03;;;;;;;30.38;14.27;;;9.40;99.90;;;;;;6322128;22;20012;-85
2023/11/23 10:30:31;;;;;;;28.15;15.80;;;9.50;99.90;;;;;;6321634;22;20004;-85
2023/11/23 10:32:58;;;;;;;14.95;10.18;;;9.50;99.90;;;;;;6319862;22;20011;-86
2023/11/23 10:35:38;;;;;;;16.38;10.20;;;9.60;99.90;;;;;;6297004;22;20457;-85
2023/11/23 10:38:06;;;;;;;12.48;8.75;;;9.60;99.90;;;;;;6318629;22;20028;-85
2023/11/23 10:40:32;;;;;;;15.27;8.77;;;9.60;99.90;;;;;;6320500;22;20062;-85
2023/11/23 10:43:03;;;;;;;15.68;8.70;;;9.60;99.90;;;;;;6214245;23;20007;-85
2023/11/23 10:45:35;;;;;;;12.57;8.60;;;9.70;99.90;;;;;;6319767;22;20096;-85
2023/11/23 10:48:04;;;;;;;13.93;8.63;;;9.70;99.90;;;;;;6319232;22;20012;-85
2023/11/23 10:50:32;;;;;;;25.00;9.63;;;9.70;99.90;;;;;;6319736;22;20017;-85
2023/11/23 10:53:00;;;;;;;12.10;8.85;;;9.80;99.90;;;;;;6319160;22;20009;-85
2023/11/23 10:55:26;;;;;;;14.10;8.52;;;9.80;99.90;;;;;;6320654;22;20012;-85
2023/11/23 10:57:56;;;;;;;14.30;8.85;;;9.80;99.90;;;;;;6320101;22;20009;-85
2023/11/23 11:00:25;;;;;;;12.48;8.15;;;9.80;99.90;;;;;;6319817;22;20008;-85
2023/11/23 11:03:08;;;;;;;15.40;9.13;;;9.80;99.90;;;;;;6320249;22;20004;-85
2023/11/23 11:05:45;;;;;;;13.13;8.50;;;9.80;99.90;;;;;;6319234;22;20005;-85
2023/11/23 11:08:16;;;;;;;20.63;8.80;;;9.80;99.90;;;;;;6319125;22;20943;-85
2023/11/23 11:10:42;;;;;;;12.95;7.80;;;9.80;99.90;;;;;;6320166;22;20024;-85
2023/11/23 11:13:12;;;;;;;17.08;9.40;;;9.80;99.90;;;;;;6319273;22;20427;-84
2023/11/23 11:16:03;;;;;;;14.75;7.80;;;9.80;99.90;;;;;;6319262;22;20015;-85
2023/11/23 11:18:29;;;;;;;15.48;7.72;;;9.80;99.90;;;;;;6319997;22;20009;-85
2023/11/23 11:21:17;;;;;;;15.00;7.13;;;9.90;99.90;;;;;;6320178;22;20008;-86
2023/11/23 11:23:44;;;;;;;14.45;7.28;;;9.90;99.90;;;;;;6319068;22;20068;-85
2023/11/23 11:26:12;;;;;;;14.85;6.78;;;10.00;99.90;;;;;;6318580;22;20000;-85
2023/11/23 11:28:39;;;;;;;18.27;6.45;;;10.00;99.90;;;;;;6319403;22;20099;-85
2023/11/23 11:34:19;;;;;;;12.50;6.60;;;10.00;99.90;;;;;;6223457;22;20012;-85
2023/11/23 11:37:01;;;;;;;11.10;4.95;;;9.90;99.90;;;;;;6320310;22;20450;-86
2023/11/23 11:39:37;;;;;;;10.48;6.15;;;10.00;99.90;;;;;;6317523;22;20019;-85
2023/11/23 11:42:19;;;;;;;;;;;;;;;;;;;;;
2023/11/23 11:44:51;;;;;;;10.10;6.38;;;10.00;99.90;;;;;;6214904;23;20038;-85
2023/11/23 11:47:17;;;;;;;10.60;6.28;;;10.00;99.90;;;;;;6320183;22;20117;-86
2023/11/23 11:50:04;;;;;;;10.30;6.82;;;10.00;99.90;;;;;;6320757;22;20005;-85
2023/11/23 11:52:46;;;;;;;19.83;9.07;;;10.00;99.90;;;;;;6317508;22;20004;-85
2023/11/23 11:55:19;;;;;;;11.90;6.18;;;10.00;99.90;;;;;;6318583;22;20015;-85
2023/11/23 11:57:58;;;;;;;14.27;5.82;;;10.00;99.90;;;;;;6321082;22;20035;-86
2023/11/23 12:00:44;;;;;;;15.02;5.38;;;10.10;99.90;;;;;;6323398;22;20397;-85
2023/11/23 12:03:43;;;;;;;9.88;4.90;;;10.10;99.90;;;;;;6321467;22;20001;-85
2023/11/23 12:06:30;;;;;;;16.08;6.50;;;10.10;99.90;;;;;;6319339;22;20004;-84
2023/11/23 12:08:57;;;;;;;13.35;6.00;;;10.20;99.90;;;;;;6322431;22;20034;-88
2023/11/23 12:11:25;;;;;;;11.77;6.03;;;10.20;99.90;;;;;;6321516;22;20016;-84
2023/11/23 12:13:54;;;;;;;17.23;7.00;;;10.20;99.90;;;;;;6320867;22;20415;-84
2023/11/23 12:16:41;;;;;;;10.10;5.72;;;10.30;99.90;;;;;;6320772;22;20005;-85
2023/11/23 12:19:20;;;;;;;12.02;7.07;;;10.20;99.90;;;;;;6320415;22;20012;-85
2023/11/23 12:21:56;;;;;;;14.25;6.13;;;10.30;99.90;;;;;;6320275;22;20074;-85
2023/11/23 12:24:25;;;;;;;10.88;6.35;;;10.30;99.90;;;;;;6321071;22;20012;-86
2023/11/23 12:26:52;;;;;;;17.40;6.53;;;10.30;99.90;;;;;;6320193;22;20346;-85
2023/11/23 12:29:25;;;;;;;14.65;6.50;;;10.30;99.90;;;;;;6320605;22;20163;-84
2023/11/23 12:31:51;;;;;;;;;;;10.30;99.90;;;;;;6323485;22;20000;-83
2023/11/23 12:34:21;;;;;;;14.18;6.72;;;10.30;99.90;;;;;;6322147;22;19915;-85
2023/11/23 12:36:47;;;;;;;11.23;5.97;;;10.30;99.90;;;;;;6298308;22;20455;-86
2023/11/23 12:39:13;;;;;;;9.07;5.90;;;10.30;99.90;;;;;;6321158;22;20012;-85
2023/11/23 12:41:44;;;;;;;10.52;5.45;;;10.20;99.90;;;;;;6322222;22;20004;-84
2023/11/23 12:44:10;;;;;;;15.98;5.82;;;10.30;99.90;;;;;;6322429;22;20056;-85
2023/11/23 12:46:36;;;;;;;8.90;5.45;;;10.30;99.90;;;;;;6323230;22;20380;-84
2023/11/23 12:49:03;;;;;;;9.93;5.72;;;10.30;99.90;;;;;;6321737;22;20012;-83
2023/11/23 12:51:30;;;;;;;7.30;5.03;;;10.30;99.90;;;;;;6322543;22;20014;-87
2023/11/23 12:53:56;;;;;;;9.32;5.63;;;10.30;99.90;;;;;;6320943;22;20008;-85
2023/11/23 12:56:23;;;;;;;11.57;6.80;;;10.20;99.90;;;;;;6321096;22;20067;-83